Observation data for Seagraves on 02/13/2018      Previous  Date  Next       Current Mesonet Observations  Soil Data  Daily Summary Page  Observations in Plain Language
KSGV 130600Z 13007KT 01/M08 A3021 RMK A01 T00141079  RH  051%=      5-min Rain = 0
KSGV 130605Z 12007KT 01/M08 A3021 RMK A01 T00141079  RH  050%=      5-min Rain = 0
KSGV 130610Z 12006KT 01/M08 A3021 RMK A01 T00141080  RH  050%=      5-min Rain = 0
KSGV 130615Z 12006KT 01/M08 A3021 RMK A01 T00121081  RH  050%=      5-min Rain = 0
KSGV 130620Z 12006KT 01/M08 A3022 RMK A01 T00111082  RH  051%=      5-min Rain = 0
KSGV 130625Z 12005KT 01/M08 A3022 RMK A01 T00091082  RH  051%=      5-min Rain = 0
KSGV 130630Z 12006KT 01/M08 A3022 RMK A01 T00081082  RH  052%=      5-min Rain = 0
KSGV 130635Z 11005KT 01/M08 A3022 RMK A01 T00071084  RH  051%=      5-min Rain = 0
KSGV 130640Z 10005KT 01/M08 A3021 RMK A01 T00061084  RH  052%=      5-min Rain = 0
KSGV 130645Z 10004KT 00/M09 A3021 RMK A01 T00031085  RH  052%=      5-min Rain = 0
KSGV 130650Z 10004KT 00/09 A3022 RMK A01 T00000-86  RH  053%=      5-min Rain = 0
KSGV 130655Z 09004KT M00/M09 A3021 RMK A01 T10021087  RH  054%=      5-min Rain = 0
KSGV 130700Z 09004KT M01/M09 A3021 RMK A01 T10051088  RH  054%=      5-min Rain = 0
KSGV 130705Z 09005KT M01/M09 A3021 RMK A01 T10061087  RH  055%=      5-min Rain = 0
KSGV 130710Z 10005KT M01/M09 A3021 RMK A01 T10061086  RH  055%=      5-min Rain = 0
KSGV 130715Z 08004KT M01/M09 A3021 RMK A01 T10061087  RH  055%=      5-min Rain = 0
KSGV 130720Z 07004KT M01/M09 A3021 RMK A01 T10071087  RH  056%=      5-min Rain = 0
KSGV 130725Z 08004KT M01/M09 A3021 RMK A01 T10071088  RH  055%=      5-min Rain = 0
KSGV 130730Z 09004KT M01/M09 A3021 RMK A01 T10081088  RH  055%=      5-min Rain = 0
KSGV 130735Z 09004KT M01/M09 A3021 RMK A01 T10091088  RH  056%=      5-min Rain = 0
KSGV 130740Z 08004KT M01/M09 A3021 RMK A01 T10091089  RH  056%=      5-min Rain = 0
KSGV 130745Z 08004KT M01/M09 A3021 RMK A01 T10111089  RH  056%=      5-min Rain = 0
KSGV 130750Z 08004KT M01/M09 A3021 RMK A01 T10111088  RH  057%=      5-min Rain = 0
KSGV 130755Z 09004KT M01/M09 A3021 RMK A01 T10111088  RH  056%=      5-min Rain = 0
KSGV 130800Z 09005KT M01/M09 A3021 RMK A01 T10101088  RH  056%=      5-min Rain = 0
KSGV 130805Z 09005KT M01/M09 A3021 RMK A01 T10101087  RH  056%=      5-min Rain = 0
KSGV 130810Z 08004KT M01/M09 A3021 RMK A01 T10111088  RH  057%=      5-min Rain = 0
KSGV 130815Z 08003KT M01/M09 A3022 RMK A01 T10121088  RH  057%=      5-min Rain = 0
KSGV 130820Z 07004KT M01/M09 A3022 RMK A01 T10121087  RH  057%=      5-min Rain = 0
KSGV 130825Z 07004KT M01/M09 A3022 RMK A01 T10111087  RH  057%=      5-min Rain = 0
KSGV 130830Z 07004KT M01/M09 A3022 RMK A01 T10111087  RH  057%=      5-min Rain = 0
KSGV 130835Z 05003KT M01/M09 A3022 RMK A01 T10121087  RH  057%=      5-min Rain = 0
KSGV 130840Z 06004KT M01/M09 A3023 RMK A01 T10121087  RH  057%=      5-min Rain = 0
KSGV 130845Z 05003KT M01/M09 A3023 RMK A01 T10111086  RH  057%=      5-min Rain = 0
KSGV 130850Z 05003KT M01/M09 A3023 RMK A01 T10111086  RH  058%=      5-min Rain = 0
KSGV 130855Z 02003KT M01/M09 A3024 RMK A01 T10131088  RH  057%=      5-min Rain = 0
KSGV 130900Z 34003KT M03/M10 A3024 RMK A01 T10261095  RH  060%=      5-min Rain = 0
KSGV 130905Z 35004KT M04/M10 A3024 RMK A01 T10351096  RH  063%=      5-min Rain = 0
KSGV 130910Z 01004KT M04/M10 A3023 RMK A01 T10361096  RH  064%=      5-min Rain = 0
KSGV 130915Z 01004KT M03/M09 A3023 RMK A01 T10341093  RH  064%=      5-min Rain = 0
KSGV 130920Z 02004KT M03/M09 A3023 RMK A01 T10331094  RH  064%=      5-min Rain = 0
KSGV 130925Z 03004KT M03/M09 A3023 RMK A01 T10291093  RH  062%=      5-min Rain = 0
KSGV 130930Z 03003KT M03/M09 A3023 RMK A01 T10281094  RH  061%=      5-min Rain = 0
KSGV 130935Z 04003KT M03/M09 A3023 RMK A01 T10281094  RH  061%=      5-min Rain = 0
KSGV 130940Z 05004KT M03/M09 A3022 RMK A01 T10271093  RH  061%=      5-min Rain = 0
KSGV 130945Z 05004KT M03/M09 A3022 RMK A01 T10261093  RH  061%=      5-min Rain = 0
KSGV 130950Z 06003KT M03/M09 A3022 RMK A01 T10261094  RH  060%=      5-min Rain = 0
KSGV 130955Z 05002KT M03/M09 A3022 RMK A01 T10261094  RH  060%=      5-min Rain = 0
KSGV 131000Z 03002KT M03/M10 A3022 RMK A01 T10281096  RH  060%=      5-min Rain = 0
KSGV 131005Z 04003KT M03/M10 A3022 RMK A01 T10301097  RH  061%=      5-min Rain = 0
KSGV 131010Z 02004KT M03/M10 A3022 RMK A01 T10331098  RH  061%=      5-min Rain = 0
KSGV 131015Z 02004KT M04/M10 A3022 RMK A01 T10351099  RH  062%=      5-min Rain = 0
KSGV 131020Z 01004KT M04/M10 A3022 RMK A01 T10361098  RH  063%=      5-min Rain = 0
KSGV 131025Z 01003KT M04/M10 A3022 RMK A01 T10371099  RH  063%=      5-min Rain = 0
KSGV 131030Z 00003KT M04/M10 A3022 RMK A01 T10411102  RH  064%=      5-min Rain = 0
KSGV 131035Z 02002KT M05/M10 A3022 RMK A01 T10461102  RH  066%=      5-min Rain = 0
KSGV 131040Z 02002KT M05/M10 A3022 RMK A01 T10461100  RH  067%=      5-min Rain = 0
KSGV 131045Z 01002KT M05/M10 A3023 RMK A01 T10471102  RH  067%=      5-min Rain = 0
KSGV 131050Z 01002KT M05/M10 A3023 RMK A01 T10501101  RH  068%=      5-min Rain = 0
KSGV 131055Z 02002KT M05/M10 A3023 RMK A01 T10501100  RH  069%=      5-min Rain = 0
KSGV 131100Z 00002KT M05/M10 A3023 RMK A01 T10491098  RH  069%=      5-min Rain = 0
KSGV 131105Z 00002KT M05/M10 A3023 RMK A01 T10491098  RH  069%=      5-min Rain = 0
KSGV 131110Z 03002KT M05/M10 A3024 RMK A01 T10491097  RH  070%=      5-min Rain = 0
KSGV 131115Z 05002KT M05/M10 A3023 RMK A01 T10481096  RH  070%=      5-min Rain = 0
KSGV 131120Z 06001KT M05/M10 A3024 RMK A01 T10461096  RH  069%=      5-min Rain = 0
KSGV 131125Z 06001KT M04/M10 A3024 RMK A01 T10441096  RH  068%=      5-min Rain = 0
KSGV 131130Z 07002KT M04/M10 A3024 RMK A01 T10421097  RH  066%=      5-min Rain = 0
KSGV 131135Z 06002KT M04/M10 A3024 RMK A01 T10411098  RH  065%=      5-min Rain = 0
KSGV 131140Z 07002KT M04/M10 A3024 RMK A01 T10401099  RH  065%=      5-min Rain = 0
KSGV 131145Z 08002KT M04/M10 A3024 RMK A01 T10391098  RH  064%=      5-min Rain = 0
KSGV 131150Z 07002KT M04/M10 A3024 RMK A01 T10381098  RH  064%=      5-min Rain = 0
KSGV 131155Z 06002KT M04/M10 A3024 RMK A01 T10381099  RH  063%=      5-min Rain = 0
KSGV 131200Z 02002KT M04/M10 A3024 RMK A01 T10401098  RH  065%=      5-min Rain = 0
KSGV 131205Z 00002KT M04/M09 A3024 RMK A01 T10421092  RH  069%=      5-min Rain = 0
KSGV 131210Z 01003KT M04/M09 A3024 RMK A01 T10441094  RH  069%=      5-min Rain = 0
KSGV 131215Z 03003KT M05/M10 A3024 RMK A01 T10451095  RH  069%=      5-min Rain = 0
KSGV 131220Z 04003KT M04/M09 A3024 RMK A01 T10421093  RH  068%=      5-min Rain = 0
KSGV 131225Z 05003KT M04/M09 A3024 RMK A01 T10391094  RH  066%=      5-min Rain = 0
KSGV 131230Z 06004KT M04/M09 A3024 RMK A01 T10371092  RH  066%=      5-min Rain = 0
KSGV 131235Z 03004KT M04/M09 A3024 RMK A01 T10351091  RH  066%=      5-min Rain = 0
KSGV 131240Z 03004KT M04/M09 A3025 RMK A01 T10351091  RH  066%=      5-min Rain = 0
KSGV 131245Z 05002KT M03/M09 A3025 RMK A01 T10341090  RH  066%=      5-min Rain = 0
KSGV 131250Z 06002KT M03/M09 A3025 RMK A01 T10331089  RH  066%=      5-min Rain = 0
KSGV 131255Z 07002KT M03/M09 A3025 RMK A01 T10331090  RH  066%=      5-min Rain = 0
KSGV 131300Z 05002KT M03/M09 A3025 RMK A01 T10341090  RH  066%=      5-min Rain = 0
KSGV 131305Z 04002KT M03/M09 A3026 RMK A01 T10341091  RH  066%=      5-min Rain = 0
KSGV 131310Z 06002KT M04/M09 A3026 RMK A01 T10361091  RH  066%=      5-min Rain = 0
KSGV 131315Z 07002KT M04/M09 A3026 RMK A01 T10371092  RH  066%=      5-min Rain = 0
KSGV 131320Z 08002KT M04/M09 A3026 RMK A01 T10371090  RH  067%=      5-min Rain = 0
KSGV 131325Z 05001KT M04/M09 A3026 RMK A01 T10361089  RH  068%=      5-min Rain = 0
KSGV 131330Z 00002KT M04/M09 A3026 RMK A01 T10391094  RH  067%=      5-min Rain = 0
KSGV 131335Z 00002KT M05/M09 A3026 RMK A01 T10451093  RH  070%=      5-min Rain = 0
KSGV 131340Z 06002KT M05/M09 A3026 RMK A01 T10471092  RH  071%=      5-min Rain = 0
KSGV 131345Z 05002KT M04/M09 A3026 RMK A01 T10441089  RH  072%=      5-min Rain = 0
KSGV 131350Z 01003KT M04/M09 A3026 RMK A01 T10421090  RH  070%=      5-min Rain = 0
KSGV 131355Z 00002KT M04/M09 A3027 RMK A01 T10421090  RH  070%=      5-min Rain = 0
KSGV 131400Z 03002KT M04/M09 A3027 RMK A01 T10401087  RH  071%=      5-min Rain = 0
KSGV 131405Z 03002KT M04/M09 A3028 RMK A01 T10361085  RH  070%=      5-min Rain = 0
KSGV 131410Z 01003KT M03/M08 A3028 RMK A01 T10301082  RH  068%=      5-min Rain = 0
KSGV 131415Z 06003KT M03/M08 A3027 RMK A01 T10251081  RH  066%=      5-min Rain = 0
KSGV 131420Z 07002KT M02/M08 A3028 RMK A01 T10221077  RH  066%=      5-min Rain = 0
KSGV 131425Z 09002KT M01/M07 A3028 RMK A01 T10141071  RH  066%=      5-min Rain = 0
KSGV 131430Z 11003KT M01/M07 A3028 RMK A01 T10091069  RH  065%=      5-min Rain = 0
KSGV 131435Z 10003KT M01/M07 A3028 RMK A01 T10081068  RH  064%=      5-min Rain = 0
KSGV 131440Z 11003KT M01/M07 A3028 RMK A01 T10051066  RH  064%=      5-min Rain = 0
KSGV 131445Z 13003KT 00/06 A3029 RMK A01 T00-00-62  RH  064%=      5-min Rain = 0
KSGV 131450Z 12003KT 00/M06 A3029 RMK A01 T00031060  RH  063%=      5-min Rain = 0
KSGV 131455Z 12004KT 01/M06 A3029 RMK A01 T00071055  RH  064%=      5-min Rain = 0
KSGV 131500Z 12004KT 01/M06 A3029 RMK A01 T00071055  RH  064%=      5-min Rain = 0
KSGV 131505Z 13004KT 01/M05 A303 RMK A01 T00101053  RH  063%=      5-min Rain = 0
KSGV 131510Z 13005KT 01/M05 A303 RMK A01 T00141051  RH  063%=      5-min Rain = 0
KSGV 131515Z 13004KT 02/M05 A303 RMK A01 T00191046  RH  063%=      5-min Rain = 0
KSGV 131520Z 15006KT 03/M04 A303 RMK A01 T00251042  RH  062%=      5-min Rain = 0
KSGV 131525Z 15007KT 03/M04 A303 RMK A01 T00281040  RH  062%=      5-min Rain = 0
KSGV 131530Z 16006KT 03/M04 A3031 RMK A01 T00311040  RH  060%=      5-min Rain = 0
KSGV 131535Z 16006KT 04/M04 A3031 RMK A01 T00351040  RH  059%=      5-min Rain = 0
KSGV 131540Z 16006KT 04/M04 A3031 RMK A01 T00371037  RH  059%=      5-min Rain = 0
KSGV 131545Z 16007KT 04/M04 A3031 RMK A01 T00411035  RH  058%=      5-min Rain = 0
KSGV 131550Z 17006KT 04/M03 A3031 RMK A01 T00441032  RH  058%=      5-min Rain = 0
KSGV 131555Z 18008KT 05/M02 A3031 RMK A01 T00521023  RH  059%=      5-min Rain = 0
KSGV 131600Z 18008KT 05/M02 A3031 RMK A01 T00531019  RH  061%=      5-min Rain = 0
KSGV 131605Z 17009KT 05/M02 A3031 RMK A01 T00531018  RH  061%=      5-min Rain = 0
KSGV 131610Z 17009KT 05/M02 A3031 RMK A01 T00541017  RH  061%=      5-min Rain = 0
KSGV 131615Z 17009KT 06/M02 A3031 RMK A01 T00581015  RH  060%=      5-min Rain = 0
KSGV 131620Z 17010KT 06/M01 A3031 RMK A01 T00601013  RH  060%=      5-min Rain = 0
KSGV 131625Z 16009KT 06/M01 A3031 RMK A01 T00621012  RH  060%=      5-min Rain = 0
KSGV 131630Z 17009KT 06/M01 A3031 RMK A01 T00631013  RH  059%=      5-min Rain = 0
KSGV 131635Z 17009KT 06/M01 A3031 RMK A01 T00631013  RH  059%=      5-min Rain = 0
KSGV 131640Z 17009KT 07/M01 A3031 RMK A01 T00651013  RH  058%=      5-min Rain = 0
KSGV 131645Z 18009KT 07/M01 A3032 RMK A01 T00671014  RH  057%=      5-min Rain = 0
KSGV 131650Z 18009KT 07/M01 A3032 RMK A01 T00671014  RH  057%=      5-min Rain = 0
KSGV 131655Z 19010KT 07/M01 A3032 RMK A01 T00701012  RH  057%=      5-min Rain = 0
KSGV 131700Z 19010KT 07/M01 A3032 RMK A01 T00741011  RH  055%=      5-min Rain = 0
KSGV 131705Z 18010KT 08/M01 A3031 RMK A01 T00751013  RH  054%=      5-min Rain = 0
KSGV 131710Z 17011KT 08/M01 A3031 RMK A01 T00771012  RH  054%=      5-min Rain = 0
KSGV 131715Z 18009G14KT 08/M01 A3032 RMK A01 T00801010  RH  054%=      5-min Rain = 0
KSGV 131720Z 18009KT 08/M01 A3032 RMK A01 T00801009  RH  054%=      5-min Rain = 0
KSGV 131725Z 17010G15KT 08/M01 A3031 RMK A01 T00841005  RH  054%=      5-min Rain = 0
KSGV 131730Z 17010KT 09/M00 A3031 RMK A01 T00901002  RH  053%=      5-min Rain = 0
KSGV 131735Z 18008KT 09/00 A3031 RMK A01 T009000-0  RH  054%=      5-min Rain = 0
KSGV 131740Z 18009G14KT 09/00 A3031 RMK A01 T009200-0  RH  053%=      5-min Rain = 0
KSGV 131745Z 18009KT 09/00 A303 RMK A01 T009000-0  RH  054%=      5-min Rain = 0
KSGV 131750Z 18008G13KT 10/00 A303 RMK A01 T009600-0  RH  052%=      5-min Rain = 0
KSGV 131755Z 18009G14KT 09/00 A303 RMK A01 T00940000  RH  052%=      5-min Rain = 0
KSGV 131800Z 18008G14KT 10/00 A303 RMK A01 T00950001  RH  052%=      5-min Rain = 0
KSGV 131805Z 18010KT 10/00 A303 RMK A01 T00990003  RH  052%=      5-min Rain = 0
KSGV 131810Z 17010KT 10/00 A3029 RMK A01 T01020004  RH  051%=      5-min Rain = 0
KSGV 131815Z 18009KT 10/00 A3029 RMK A01 T01040004  RH  051%=      5-min Rain = 0
KSGV 131820Z 17010KT 10/00 A3029 RMK A01 T01040004  RH  050%=      5-min Rain = 0
KSGV 131825Z 17009G17KT 11/01 A3029 RMK A01 T01050005  RH  050%=      5-min Rain = 0
KSGV 131830Z 17008KT 11/01 A3028 RMK A01 T01070006  RH  050%=      5-min Rain = 0
KSGV 131835Z 17008G14KT 11/01 A3028 RMK A01 T01100007  RH  050%=      5-min Rain = 0
KSGV 131840Z 17009KT 11/01 A3028 RMK A01 T01110007  RH  049%=      5-min Rain = 0
KSGV 131845Z 19008KT 11/01 A3028 RMK A01 T01130007  RH  049%=      5-min Rain = 0
KSGV 131850Z 17010KT 12/01 A3028 RMK A01 T01160007  RH  048%=      5-min Rain = 0
KSGV 131855Z 17009G14KT 12/01 A3028 RMK A01 T01170008  RH  048%=      5-min Rain = 0
KSGV 131900Z 18010KT 12/01 A3028 RMK A01 T01190009  RH  047%=      5-min Rain = 0
KSGV 131905Z 17008KT 12/01 A3027 RMK A01 T01200010  RH  047%=      5-min Rain = 0
KSGV 131910Z 17009G14KT 13/01 A3027 RMK A01 T01270010  RH  045%=      5-min Rain = 0
KSGV 131915Z 17009KT 13/01 A3027 RMK A01 T01280010  RH  045%=      5-min Rain = 0
KSGV 131920Z 18008KT 13/01 A3027 RMK A01 T01310011  RH  044%=      5-min Rain = 0
KSGV 131925Z 17008KT 13/01 A3026 RMK A01 T01340010  RH  043%=      5-min Rain = 0
KSGV 131930Z 17008KT 14/01 A3026 RMK A01 T01360010  RH  042%=      5-min Rain = 0
KSGV 131935Z 16008G13KT 14/01 A3026 RMK A01 T01350009  RH  043%=      5-min Rain = 0
KSGV 131940Z 18008G13KT 14/01 A3025 RMK A01 T01360009  RH  042%=      5-min Rain = 0
KSGV 131945Z 16007KT 14/01 A3025 RMK A01 T01390009  RH  042%=      5-min Rain = 0
KSGV 131950Z 17008KT 14/01 A3025 RMK A01 T01420008  RH  041%=      5-min Rain = 0
KSGV 131955Z 17007G12KT 15/01 A3025 RMK A01 T01450009  RH  040%=      5-min Rain = 0
KSGV 132000Z 16008G13KT 15/01 A3024 RMK A01 T01480009  RH  039%=      5-min Rain = 0
KSGV 132005Z 15008KT 15/01 A3024 RMK A01 T01480010  RH  039%=      5-min Rain = 0
KSGV 132010Z 16008G14KT 15/01 A3023 RMK A01 T01490009  RH  039%=      5-min Rain = 0
KSGV 132015Z 14008G13KT 15/01 A3023 RMK A01 T01500009  RH  039%=      5-min Rain = 0
KSGV 132020Z 14006KT 15/01 A3023 RMK A01 T01510010  RH  039%=      5-min Rain = 0
KSGV 132025Z 16007KT 15/01 A3023 RMK A01 T01520008  RH  038%=      5-min Rain = 0
KSGV 132030Z 15008G13KT 15/01 A3023 RMK A01 T01530010  RH  038%=      5-min Rain = 0
KSGV 132035Z 15007KT 16/01 A3023 RMK A01 T01570010  RH  037%=      5-min Rain = 0
KSGV 132040Z 16010KT 16/01 A3023 RMK A01 T01570009  RH  037%=      5-min Rain = 0
KSGV 132045Z 16009G14KT 16/01 A3023 RMK A01 T01580008  RH  037%=      5-min Rain = 0
KSGV 132050Z 16008G13KT 16/01 A3023 RMK A01 T01620008  RH  036%=      5-min Rain = 0
KSGV 132055Z 17010KT 16/01 A3023 RMK A01 T01630007  RH  035%=      5-min Rain = 0
KSGV 132100Z 17008G14KT 16/01 A3023 RMK A01 T01630007  RH  035%=      5-min Rain = 0
KSGV 132105Z 18008KT 17/01 A3023 RMK A01 T01650006  RH  034%=      5-min Rain = 0
KSGV 132110Z 17008G13KT 17/01 A3023 RMK A01 T01650006  RH  034%=      5-min Rain = 0
KSGV 132115Z 18008KT 17/01 A3023 RMK A01 T01670005  RH  034%=      5-min Rain = 0
KSGV 132120Z 17006G11KT 16/01 A3023 RMK A01 T01630006  RH  035%=      5-min Rain = 0
KSGV 132125Z 17007G13KT 16/01 A3023 RMK A01 T01630006  RH  035%=      5-min Rain = 0
KSGV 132130Z 16008KT 16/01 A3023 RMK A01 T01630007  RH  035%=      5-min Rain = 0
KSGV 132135Z 14006G11KT 17/01 A3023 RMK A01 T01670007  RH  034%=      5-min Rain = 0
KSGV 132140Z 18007KT 17/01 A3022 RMK A01 T01690007  RH  034%=      5-min Rain = 0
KSGV 132145Z 21007KT 17/01 A3022 RMK A01 T01690006  RH  034%=      5-min Rain = 0
KSGV 132150Z 18006KT 17/01 A3022 RMK A01 T01670006  RH  034%=      5-min Rain = 0
KSGV 132155Z 16006KT 17/01 A3022 RMK A01 T01650006  RH  034%=      5-min Rain = 0
KSGV 132200Z 17009KT 17/01 A3022 RMK A01 T01670006  RH  034%=      5-min Rain = 0
KSGV 132205Z 17007KT 17/01 A3022 RMK A01 T01690007  RH  034%=      5-min Rain = 0
KSGV 132210Z 18005KT 17/01 A3022 RMK A01 T01680007  RH  034%=      5-min Rain = 0
KSGV 132215Z 15006KT 17/01 A3022 RMK A01 T01680006  RH  034%=      5-min Rain = 0
KSGV 132220Z 14005KT 17/01 A3022 RMK A01 T01670007  RH  034%=      5-min Rain = 0
KSGV 132225Z 16005KT 17/01 A3022 RMK A01 T01660007  RH  034%=      5-min Rain = 0
KSGV 132230Z 19005KT 17/01 A3022 RMK A01 T01690005  RH  033%=      5-min Rain = 0
KSGV 132235Z 18007KT 17/01 A3021 RMK A01 T01690005  RH  033%=      5-min Rain = 0
KSGV 132240Z 19007KT 17/01 A3022 RMK A01 T01710005  RH  033%=      5-min Rain = 0
KSGV 132245Z 18006G11KT 17/01 A3022 RMK A01 T01680005  RH  034%=      5-min Rain = 0
KSGV 132250Z 18007KT 17/01 A3022 RMK A01 T01680006  RH  034%=      5-min Rain = 0
KSGV 132255Z 18005KT 17/01 A3022 RMK A01 T01690006  RH  034%=      5-min Rain = 0
KSGV 132300Z 18006KT 17/01 A3022 RMK A01 T01700006  RH  033%=      5-min Rain = 0
KSGV 132305Z 18006KT 17/01 A3022 RMK A01 T01700006  RH  033%=      5-min Rain = 0
KSGV 132310Z 17006KT 17/01 A3022 RMK A01 T01710005  RH  033%=      5-min Rain = 0
KSGV 132315Z 18006KT 17/01 A3022 RMK A01 T01700005  RH  033%=      5-min Rain = 0
KSGV 132320Z 18006KT 17/01 A3022 RMK A01 T01670006  RH  034%=      5-min Rain = 0
KSGV 132325Z 17004KT 17/01 A3022 RMK A01 T01660006  RH  034%=      5-min Rain = 0
KSGV 132330Z 16005KT 17/01 A3022 RMK A01 T01670006  RH  034%=      5-min Rain = 0
KSGV 132335Z 14004KT 17/01 A3022 RMK A01 T01660007  RH  034%=      5-min Rain = 0
KSGV 132340Z 15005KT 17/01 A3022 RMK A01 T01650008  RH  035%=      5-min Rain = 0
KSGV 132345Z 16007KT 17/01 A3022 RMK A01 T01650007  RH  035%=      5-min Rain = 0
KSGV 132350Z 16006KT 16/01 A3022 RMK A01 T01630007  RH  035%=      5-min Rain = 0
KSGV 132355Z 15006KT 16/01 A3022 RMK A01 T01600007  RH  036%=      5-min Rain = 0
KSGV 140000Z 14005KT 16/01 A3022 RMK A01 T01570010  RH  037%=      5-min Rain = 0
KSGV 140005Z 14006KT 15/01 A3022 RMK A01 T01530011  RH  039%=      5-min Rain = 0
KSGV 140010Z 14006KT 15/01 A3022 RMK A01 T01490012  RH  040%=      5-min Rain = 0
KSGV 140015Z 14006KT 15/01 A3023 RMK A01 T01460012  RH  041%=      5-min Rain = 0
KSGV 140020Z 14005KT 14/01 A3023 RMK A01 T01430012  RH  041%=      5-min Rain = 0
KSGV 140025Z 14005KT 14/01 A3023 RMK A01 T01390012  RH  042%=      5-min Rain = 0
KSGV 140030Z 14005KT 14/01 A3022 RMK A01 T01360011  RH  043%=      5-min Rain = 0
KSGV 140035Z 14005KT 13/01 A3023 RMK A01 T01320009  RH  044%=      5-min Rain = 0
KSGV 140040Z 15005KT 13/01 A3023 RMK A01 T01280008  RH  044%=      5-min Rain = 0
KSGV 140045Z 15005KT 13/01 A3023 RMK A01 T01250007  RH  045%=      5-min Rain = 0
KSGV 140050Z 15005KT 12/01 A3023 RMK A01 T01220008  RH  046%=      5-min Rain = 0
KSGV 140055Z 15005KT 12/01 A3023 RMK A01 T01200009  RH  047%=      5-min Rain = 0
KSGV 140100Z 15006KT 12/01 A3023 RMK A01 T01180008  RH  047%=      5-min Rain = 0
KSGV 140105Z 15006KT 12/01 A3023 RMK A01 T01160007  RH  048%=      5-min Rain = 0
KSGV 140110Z 15007KT 11/01 A3023 RMK A01 T01140007  RH  048%=      5-min Rain = 0
KSGV 140115Z 15006KT 11/01 A3024 RMK A01 T01130008  RH  049%=      5-min Rain = 0
KSGV 140120Z 15006KT 11/01 A3024 RMK A01 T01130008  RH  049%=      5-min Rain = 0
KSGV 140125Z 15006KT 11/01 A3024 RMK A01 T01120007  RH  049%=      5-min Rain = 0
KSGV 140130Z 15006KT 11/01 A3024 RMK A01 T01100007  RH  049%=      5-min Rain = 0
KSGV 140135Z 15006KT 11/01 A3024 RMK A01 T01090006  RH  050%=      5-min Rain = 0
KSGV 140140Z 15006KT 11/01 A3023 RMK A01 T01090006  RH  050%=      5-min Rain = 0
KSGV 140145Z 15006KT 11/01 A3024 RMK A01 T01100006  RH  049%=      5-min Rain = 0
KSGV 140150Z 15006KT 11/01 A3024 RMK A01 T01100006  RH  049%=      5-min Rain = 0
KSGV 140155Z 15006KT 11/01 A3024 RMK A01 T01110005  RH  049%=      5-min Rain = 0
KSGV 140200Z 15007KT 11/01 A3024 RMK A01 T01110005  RH  048%=      5-min Rain = 0
KSGV 140205Z 15006KT 11/00 A3024 RMK A01 T01100004  RH  049%=      5-min Rain = 0
KSGV 140210Z 15006KT 11/01 A3024 RMK A01 T01080005  RH  050%=      5-min Rain = 0
KSGV 140215Z 15005KT 11/01 A3024 RMK A01 T01090005  RH  049%=      5-min Rain = 0
KSGV 140220Z 15005KT 11/01 A3024 RMK A01 T01100006  RH  049%=      5-min Rain = 0
KSGV 140225Z 15005KT 11/01 A3024 RMK A01 T01120006  RH  049%=      5-min Rain = 0
KSGV 140230Z 15005KT 11/01 A3025 RMK A01 T01120006  RH  048%=      5-min Rain = 0
KSGV 140235Z 15005KT 11/01 A3025 RMK A01 T01120005  RH  048%=      5-min Rain = 0
KSGV 140240Z 15006KT 11/00 A3024 RMK A01 T01100004  RH  049%=      5-min Rain = 0
KSGV 140245Z 15006KT 11/00 A3024 RMK A01 T01080004  RH  049%=      5-min Rain = 0
KSGV 140250Z 16006KT 11/01 A3024 RMK A01 T01080005  RH  049%=      5-min Rain = 0
KSGV 140255Z 16006KT 11/01 A3024 RMK A01 T01100005  RH  049%=      5-min Rain = 0
KSGV 140300Z 17006KT 11/00 A3025 RMK A01 T01090003  RH  049%=      5-min Rain = 0
KSGV 140305Z 17006KT 11/00 A3025 RMK A01 T01050002  RH  049%=      5-min Rain = 0
KSGV 140310Z 17006KT 10/00 A3025 RMK A01 T01030002  RH  050%=      5-min Rain = 0
KSGV 140315Z 18005KT 10/00 A3025 RMK A01 T01030001  RH  050%=      5-min Rain = 0
KSGV 140320Z 17005KT 10/00 A3025 RMK A01 T01020000  RH  050%=      5-min Rain = 0
KSGV 140325Z 17005KT 10/00 A3025 RMK A01 T01000000  RH  050%=      5-min Rain = 0
KSGV 140330Z 17005KT 10/00 A3025 RMK A01 T01000000  RH  051%=      5-min Rain = 0
KSGV 140335Z 17004KT 10/00 A3025 RMK A01 T01000000  RH  050%=      5-min Rain = 0
KSGV 140340Z 17003KT 10/00 A3025 RMK A01 T01010001  RH  050%=      5-min Rain = 0
KSGV 140345Z 25001KT 10/M00 A3025 RMK A01 T00991002  RH  050%=      5-min Rain = 0
KSGV 140350Z 26001KT 09/M00 A3025 RMK A01 T00891002  RH  053%=      5-min Rain = 0
KSGV 140355Z 18001KT 09/M00 A3025 RMK A01 T00861001  RH  055%=      5-min Rain = 0
KSGV 140400Z 22001KT 09/00 A3026 RMK A01 T00850000  RH  056%=      5-min Rain = 0
KSGV 140405Z 21001KT 09/M00 A3026 RMK A01 T00851001  RH  055%=      5-min Rain = 0
KSGV 140410Z 25000KT 08/M00 A3026 RMK A01 T00821001  RH  056%=      5-min Rain = 0
KSGV 140415Z 00000KT 08/M00 A3026 RMK A01 T00791001  RH  058%=      5-min Rain = 0
KSGV 140420Z 20001KT 08/00 A3026 RMK A01 T00790002  RH  059%=      5-min Rain = 0
KSGV 140425Z 19002KT 08/00 A3025 RMK A01 T00800001  RH  058%=      5-min Rain = 0
KSGV 140430Z 20002KT 08/M00 A3026 RMK A01 T00781001  RH  058%=      5-min Rain = 0
KSGV 140435Z 21002KT 08/M00 A3025 RMK A01 T00751003  RH  058%=      5-min Rain = 0
KSGV 140440Z 19001KT 07/M01 A3025 RMK A01 T00711007  RH  058%=      5-min Rain = 0
KSGV 140445Z 00000KT 07/M00 A3025 RMK A01 T00701004  RH  060%=      5-min Rain = 0
KSGV 140450Z 27001KT 07/M01 A3026 RMK A01 T00671005  RH  061%=      5-min Rain = 0
KSGV 140455Z 23002KT 06/M01 A3026 RMK A01 T00621011  RH  060%=      5-min Rain = 0
KSGV 140500Z 23002KT 06/M01 A3026 RMK A01 T00581013  RH  061%=      5-min Rain = 0
KSGV 140505Z 24002KT 06/M02 A3025 RMK A01 T00581016  RH  060%=      5-min Rain = 0
KSGV 140510Z 23002KT 06/M02 A3025 RMK A01 T00571017  RH  059%=      5-min Rain = 0
KSGV 140515Z 23002KT 06/M02 A3026 RMK A01 T00581016  RH  060%=      5-min Rain = 0
KSGV 140520Z 23002KT 06/M01 A3026 RMK A01 T00601013  RH  060%=      5-min Rain = 0
KSGV 140525Z 25001KT 06/M02 A3026 RMK A01 T00611015  RH  059%=      5-min Rain = 0
KSGV 140530Z 25000KT 06/M02 A3026 RMK A01 T00581017  RH  059%=      5-min Rain = 0
KSGV 140535Z 21001KT 06/M01 A3026 RMK A01 T00581014  RH  060%=      5-min Rain = 0
KSGV 140540Z 19001KT 06/M01 A3026 RMK A01 T00611011  RH  061%=      5-min Rain = 0
KSGV 140545Z 21002KT 06/M01 A3026 RMK A01 T00621011  RH  060%=      5-min Rain = 0
KSGV 140550Z 19002KT 06/M01 A3025 RMK A01 T00621014  RH  059%=      5-min Rain = 0
KSGV 140555Z 21001KT 06/M01 A3025 RMK A01 T00621011  RH  060%=      5-min Rain = 0

Page generated in 0.0092 seconds.